<?xml version="1.0" encoding="UTF-8" standalone="no" ?>
<gpx xmlns="http://www.topografix.com/GPX/1/1" xmlns:xsi="http://www.w3.org/2001/XMLSchema-instance" xsi:schemaLocation="http://www.topografix.com/GPX/1/1 http://www.topografix.com/GPX/1/1/gpx.xsd" version="1.1" creator="VisuGPX - https://www.visugpx.com">
  <metadata>
    <name>Abbaye de Valcroissant</name>
    <desc><![CDATA[Ballade autour de l'abbaye aujourd'hui reconvertie en gÃ?Â®te. Site reposant, au pied du Glandasse]]></desc>
  </metadata>
  <trk>
    <name><![CDATA[Die Autre]]></name>
    <trkseg>
      <trkpt lat="44.74628" lon="5.43271">
        <ele>665.20001220703</ele>
        <time>2018-08-13T11:07:50.000Z</time>
      </trkpt>
      <trkpt lat="44.74642" lon="5.43254">
        <ele>665.59997558594</ele>
        <time>2018-08-13T11:08:16.000Z</time>
      </trkpt>
      <trkpt lat="44.74644" lon="5.43247">
        <ele>665.40002441406</ele>
        <time>2018-08-13T11:08:22.000Z</time>
      </trkpt>
      <trkpt lat="44.74647" lon="5.43234">
        <ele>665</ele>
        <time>2018-08-13T11:08:33.000Z</time>
      </trkpt>
      <trkpt lat="44.74655" lon="5.43179">
        <ele>661.79998779297</ele>
        <time>2018-08-13T11:09:45.000Z</time>
      </trkpt>
      <trkpt lat="44.7465" lon="5.43173">
        <ele>661</ele>
        <time>2018-08-13T11:09:51.000Z</time>
      </trkpt>
      <trkpt lat="44.74663" lon="5.43121">
        <ele>658.40002441406</ele>
        <time>2018-08-13T11:10:43.000Z</time>
      </trkpt>
      <trkpt lat="44.74664" lon="5.43093">
        <ele>654.59997558594</ele>
        <time>2018-08-13T11:11:11.000Z</time>
      </trkpt>
      <trkpt lat="44.74661" lon="5.43051">
        <ele>651</ele>
        <time>2018-08-13T11:12:10.000Z</time>
      </trkpt>
      <trkpt lat="44.74661" lon="5.43043">
        <ele>650.40002441406</ele>
        <time>2018-08-13T11:12:16.000Z</time>
      </trkpt>
      <trkpt lat="44.74656" lon="5.43007">
        <ele>647.40002441406</ele>
        <time>2018-08-13T11:12:59.000Z</time>
      </trkpt>
      <trkpt lat="44.74657" lon="5.42983">
        <ele>646.79998779297</ele>
        <time>2018-08-13T11:13:30.000Z</time>
      </trkpt>
      <trkpt lat="44.74658" lon="5.42978">
        <ele>647</ele>
        <time>2018-08-13T11:13:34.000Z</time>
      </trkpt>
      <trkpt lat="44.74677" lon="5.42961">
        <ele>650.20001220703</ele>
        <time>2018-08-13T11:14:01.000Z</time>
      </trkpt>
      <trkpt lat="44.74722" lon="5.42953">
        <ele>656.79998779297</ele>
        <time>2018-08-13T11:15:22.000Z</time>
      </trkpt>
      <trkpt lat="44.74731" lon="5.42946">
        <ele>657.20001220703</ele>
        <time>2018-08-13T11:15:37.000Z</time>
      </trkpt>
      <trkpt lat="44.74759" lon="5.42931">
        <ele>658.79998779297</ele>
        <time>2018-08-13T11:16:27.000Z</time>
      </trkpt>
      <trkpt lat="44.74771" lon="5.4294">
        <ele>661.40002441406</ele>
        <time>2018-08-13T11:16:50.000Z</time>
      </trkpt>
      <trkpt lat="44.74797" lon="5.42954">
        <ele>665.20001220703</ele>
        <time>2018-08-13T11:17:38.000Z</time>
      </trkpt>
      <trkpt lat="44.74811" lon="5.42963">
        <ele>667</ele>
        <time>2018-08-13T11:18:36.000Z</time>
      </trkpt>
      <trkpt lat="44.74814" lon="5.42931">
        <ele>661.40002441406</ele>
        <time>2018-08-13T11:19:36.000Z</time>
      </trkpt>
      <trkpt lat="44.74812" lon="5.42928">
        <ele>661</ele>
        <time>2018-08-13T11:19:38.000Z</time>
      </trkpt>
      <trkpt lat="44.74832" lon="5.42891">
        <ele>658</ele>
        <time>2018-08-13T11:20:50.000Z</time>
      </trkpt>
      <trkpt lat="44.74859" lon="5.42865">
        <ele>658.40002441406</ele>
        <time>2018-08-13T11:22:19.000Z</time>
      </trkpt>
      <trkpt lat="44.74894" lon="5.42841">
        <ele>663.79998779297</ele>
        <time>2018-08-13T11:24:14.000Z</time>
      </trkpt>
      <trkpt lat="44.74897" lon="5.42839">
        <ele>664.40002441406</ele>
        <time>2018-08-13T11:24:18.000Z</time>
      </trkpt>
      <trkpt lat="44.74918" lon="5.42816">
        <ele>666.40002441406</ele>
        <time>2018-08-13T11:24:52.000Z</time>
      </trkpt>
      <trkpt lat="44.74921" lon="5.42774">
        <ele>664.40002441406</ele>
        <time>2018-08-13T11:27:17.000Z</time>
      </trkpt>
      <trkpt lat="44.74936" lon="5.42719">
        <ele>663.59997558594</ele>
        <time>2018-08-13T11:28:55.000Z</time>
      </trkpt>
      <trkpt lat="44.74959" lon="5.42677">
        <ele>668.40002441406</ele>
        <time>2018-08-13T11:30:33.000Z</time>
      </trkpt>
      <trkpt lat="44.74974" lon="5.42658">
        <ele>672.40002441406</ele>
        <time>2018-08-13T11:34:31.000Z</time>
      </trkpt>
      <trkpt lat="44.74985" lon="5.42651">
        <ele>674.79998779297</ele>
        <time>2018-08-13T11:34:49.000Z</time>
      </trkpt>
      <trkpt lat="44.75016" lon="5.42637">
        <ele>681.40002441406</ele>
        <time>2018-08-13T11:35:57.000Z</time>
      </trkpt>
      <trkpt lat="44.7504" lon="5.42633">
        <ele>686.79998779297</ele>
        <time>2018-08-13T11:36:30.000Z</time>
      </trkpt>
      <trkpt lat="44.75048" lon="5.42614">
        <ele>690.40002441406</ele>
        <time>2018-08-13T11:38:44.000Z</time>
      </trkpt>
      <trkpt lat="44.75022" lon="5.42564">
        <ele>688.20001220703</ele>
        <time>2018-08-13T11:39:46.000Z</time>
      </trkpt>
      <trkpt lat="44.75035" lon="5.42509">
        <ele>698.40002441406</ele>
        <time>2018-08-13T11:41:00.000Z</time>
      </trkpt>
      <trkpt lat="44.75046" lon="5.42464">
        <ele>708.20001220703</ele>
        <time>2018-08-13T11:41:42.000Z</time>
      </trkpt>
      <trkpt lat="44.75054" lon="5.42435">
        <ele>714.40002441406</ele>
        <time>2018-08-13T11:42:06.000Z</time>
      </trkpt>
      <trkpt lat="44.75041" lon="5.424">
        <ele>716.20001220703</ele>
        <time>2018-08-13T11:43:55.000Z</time>
      </trkpt>
      <trkpt lat="44.7503" lon="5.42417">
        <ele>713.20001220703</ele>
        <time>2018-08-13T11:44:19.000Z</time>
      </trkpt>
      <trkpt lat="44.75021" lon="5.42427">
        <ele>712.40002441406</ele>
        <time>2018-08-13T11:44:30.000Z</time>
      </trkpt>
      <trkpt lat="44.7499" lon="5.42465">
        <ele>701</ele>
        <time>2018-08-13T11:45:51.000Z</time>
      </trkpt>
      <trkpt lat="44.74989" lon="5.42468">
        <ele>700.20001220703</ele>
        <time>2018-08-13T11:45:54.000Z</time>
      </trkpt>
      <trkpt lat="44.7499" lon="5.42479">
        <ele>698.59997558594</ele>
        <time>2018-08-13T11:46:01.000Z</time>
      </trkpt>
      <trkpt lat="44.74979" lon="5.425">
        <ele>693.40002441406</ele>
        <time>2018-08-13T11:46:32.000Z</time>
      </trkpt>
      <trkpt lat="44.74957" lon="5.42508">
        <ele>687.79998779297</ele>
        <time>2018-08-13T11:46:54.000Z</time>
      </trkpt>
      <trkpt lat="44.74912" lon="5.42514">
        <ele>684.79998779297</ele>
        <time>2018-08-13T11:47:46.000Z</time>
      </trkpt>
      <trkpt lat="44.74887" lon="5.42517">
        <ele>682.20001220703</ele>
        <time>2018-08-13T11:48:12.000Z</time>
      </trkpt>
      <trkpt lat="44.74864" lon="5.4253">
        <ele>678</ele>
        <time>2018-08-13T11:49:00.000Z</time>
      </trkpt>
      <trkpt lat="44.74828" lon="5.42546">
        <ele>674.79998779297</ele>
        <time>2018-08-13T11:49:55.000Z</time>
      </trkpt>
      <trkpt lat="44.74793" lon="5.42575">
        <ele>669</ele>
        <time>2018-08-13T11:50:52.000Z</time>
      </trkpt>
      <trkpt lat="44.74768" lon="5.4259">
        <ele>662.79998779297</ele>
        <time>2018-08-13T11:53:26.000Z</time>
      </trkpt>
      <trkpt lat="44.74759" lon="5.42594">
        <ele>660.79998779297</ele>
        <time>2018-08-13T11:57:47.000Z</time>
      </trkpt>
      <trkpt lat="44.74714" lon="5.42594">
        <ele>654.40002441406</ele>
        <time>2018-08-13T11:58:40.000Z</time>
      </trkpt>
      <trkpt lat="44.74712" lon="5.42594">
        <ele>654.20001220703</ele>
        <time>2018-08-13T11:58:42.000Z</time>
      </trkpt>
      <trkpt lat="44.74668" lon="5.42587">
        <ele>650.20001220703</ele>
        <time>2018-08-13T11:59:42.000Z</time>
      </trkpt>
      <trkpt lat="44.74624" lon="5.42597">
        <ele>641.59997558594</ele>
        <time>2018-08-13T12:00:31.000Z</time>
      </trkpt>
      <trkpt lat="44.74598" lon="5.426">
        <ele>637</ele>
        <time>2018-08-13T12:01:04.000Z</time>
      </trkpt>
      <trkpt lat="44.74554" lon="5.42586">
        <ele>634.20001220703</ele>
        <time>2018-08-13T12:01:52.000Z</time>
      </trkpt>
      <trkpt lat="44.7451" lon="5.42572">
        <ele>631.40002441406</ele>
        <time>2018-08-13T12:02:40.000Z</time>
      </trkpt>
      <trkpt lat="44.74497" lon="5.42579">
        <ele>628</ele>
        <time>2018-08-13T12:02:54.000Z</time>
      </trkpt>
      <trkpt lat="44.74453" lon="5.42579">
        <ele>622.59997558594</ele>
        <time>2018-08-13T12:03:49.000Z</time>
      </trkpt>
      <trkpt lat="44.7444" lon="5.4258">
        <ele>619.40002441406</ele>
        <time>2018-08-13T12:04:02.000Z</time>
      </trkpt>
      <trkpt lat="44.74397" lon="5.42566">
        <ele>612.59997558594</ele>
        <time>2018-08-13T12:04:59.000Z</time>
      </trkpt>
      <trkpt lat="44.74396" lon="5.42565">
        <ele>612.40002441406</ele>
        <time>2018-08-13T12:05:00.000Z</time>
      </trkpt>
      <trkpt lat="44.74362" lon="5.42549">
        <ele>609</ele>
        <time>2018-08-13T12:05:40.000Z</time>
      </trkpt>
      <trkpt lat="44.74324" lon="5.42514">
        <ele>611.20001220703</ele>
        <time>2018-08-13T12:06:52.000Z</time>
      </trkpt>
      <trkpt lat="44.74286" lon="5.42481">
        <ele>613</ele>
        <time>2018-08-13T12:07:47.000Z</time>
      </trkpt>
      <trkpt lat="44.74268" lon="5.42481">
        <ele>611.20001220703</ele>
        <time>2018-08-13T12:08:14.000Z</time>
      </trkpt>
      <trkpt lat="44.74233" lon="5.42475">
        <ele>608.40002441406</ele>
        <time>2018-08-13T12:08:53.000Z</time>
      </trkpt>
      <trkpt lat="44.74223" lon="5.42475">
        <ele>607.40002441406</ele>
        <time>2018-08-13T12:09:04.000Z</time>
      </trkpt>
      <trkpt lat="44.74217" lon="5.42474">
        <ele>607</ele>
        <time>2018-08-13T12:09:12.000Z</time>
      </trkpt>
      <trkpt lat="44.74205" lon="5.42476">
        <ele>608</ele>
        <time>2018-08-13T12:09:22.000Z</time>
      </trkpt>
      <trkpt lat="44.74191" lon="5.42483">
        <ele>617</ele>
        <time>2018-08-13T12:09:34.000Z</time>
      </trkpt>
      <trkpt lat="44.74192" lon="5.42499">
        <ele>617.79998779297</ele>
        <time>2018-08-13T12:10:41.000Z</time>
      </trkpt>
      <trkpt lat="44.74196" lon="5.42517">
        <ele>617.40002441406</ele>
        <time>2018-08-13T12:11:35.000Z</time>
      </trkpt>
      <trkpt lat="44.742" lon="5.42522">
        <ele>615.20001220703</ele>
        <time>2018-08-13T12:11:42.000Z</time>
      </trkpt>
      <trkpt lat="44.74201" lon="5.42507">
        <ele>613</ele>
        <time>2018-08-13T12:12:45.000Z</time>
      </trkpt>
    </trkseg>
  </trk>
</gpx>